sensor_id;sensor_type;location;lat;lon;timestamp;temperature;humidity
10678;DHT22;5387;48.722;9.110;2023-08-17T00:02:14;18.50;99.90
10678;DHT22;5387;48.722;9.110;2023-08-17T00:04:41;18.60;99.90
10678;DHT22;5387;48.722;9.110;2023-08-17T00:07:07;18.50;99.90
10678;DHT22;5387;48.722;9.110;2023-08-17T00:09:34;18.50;99.90
10678;DHT22;5387;48.722;9.110;2023-08-17T00:12:01;18.50;99.90
10678;DHT22;5387;48.722;9.110;2023-08-17T00:14:30;18.60;99.90
10678;DHT22;5387;48.722;9.110;2023-08-17T00:16:57;18.60;99.90
10678;DHT22;5387;48.722;9.110;2023-08-17T00:19:24;18.50;99.90
10678;DHT22;5387;48.722;9.110;2023-08-17T00:21:51;18.70;99.90
10678;DHT22;5387;48.722;9.110;2023-08-17T00:24:18;18.70;99.90
10678;DHT22;5387;48.722;9.110;2023-08-17T00:26:45;18.70;99.90
10678;DHT22;5387;48.722;9.110;2023-08-17T00:29:12;18.70;99.90
10678;DHT22;5387;48.722;9.110;2023-08-17T00:31:41;18.70;99.90
10678;DHT22;5387;48.722;9.110;2023-08-17T00:34:08;18.70;99.90
10678;DHT22;5387;48.722;9.110;2023-08-17T00:36:35;18.60;99.90
10678;DHT22;5387;48.722;9.110;2023-08-17T00:39:02;18.60;99.90
10678;DHT22;5387;48.722;9.110;2023-08-17T00:41:29;18.50;99.90
10678;DHT22;5387;48.722;9.110;2023-08-17T00:43:56;18.40;99.90
10678;DHT22;5387;48.722;9.110;2023-08-17T00:46:23;18.60;99.90
10678;DHT22;5387;48.722;9.110;2023-08-17T00:48:53;18.40;99.90
10678;DHT22;5387;48.722;9.110;2023-08-17T00:51:22;18.40;99.90
10678;DHT22;5387;48.722;9.110;2023-08-17T00:53:50;18.50;99.90
10678;DHT22;5387;48.722;9.110;2023-08-17T00:56:18;18.40;99.90
10678;DHT22;5387;48.722;9.110;2023-08-17T00:58:44;18.20;99.90
10678;DHT22;5387;48.722;9.110;2023-08-17T01:01:11;18.20;99.90
10678;DHT22;5387;48.722;9.110;2023-08-17T01:03:39;18.30;99.90
10678;DHT22;5387;48.722;9.110;2023-08-17T01:06:08;18.10;99.90
10678;DHT22;5387;48.722;9.110;2023-08-17T01:08:36;18.20;99.90
10678;DHT22;5387;48.722;9.110;2023-08-17T01:11:10;18.20;99.90
10678;DHT22;5387;48.722;9.110;2023-08-17T01:13:47;18.20;99.90
10678;DHT22;5387;48.722;9.110;2023-08-17T01:16:20;18.00;99.90
10678;DHT22;5387;48.722;9.110;2023-08-17T01:18:48;18.00;99.90
10678;DHT22;5387;48.722;9.110;2023-08-17T01:21:21;18.10;99.90
10678;DHT22;5387;48.722;9.110;2023-08-17T01:23:50;18.10;99.90
10678;DHT22;5387;48.722;9.110;2023-08-17T01:26:17;18.10;99.90
10678;DHT22;5387;48.722;9.110;2023-08-17T01:28:46;18.20;99.90
10678;DHT22;5387;48.722;9.110;2023-08-17T01:31:19;18.20;99.90
10678;DHT22;5387;48.722;9.110;2023-08-17T01:33:49;18.30;99.90
10678;DHT22;5387;48.722;9.110;2023-08-17T01:36:20;18.40;99.90
10678;DHT22;5387;48.722;9.110;2023-08-17T01:38:53;18.40;99.90
10678;DHT22;5387;48.722;9.110;2023-08-17T01:41:23;18.30;99.90
10678;DHT22;5387;48.722;9.110;2023-08-17T01:43:51;18.60;99.90
10678;DHT22;5387;48.722;9.110;2023-08-17T01:46:18;18.60;99.90
10678;DHT22;5387;48.722;9.110;2023-08-17T01:48:45;18.70;99.90
10678;DHT22;5387;48.722;9.110;2023-08-17T01:51:18;18.70;99.90
10678;DHT22;5387;48.722;9.110;2023-08-17T01:53:46;18.80;99.90
10678;DHT22;5387;48.722;9.110;2023-08-17T01:56:14;18.80;99.90
10678;DHT22;5387;48.722;9.110;2023-08-17T01:58:41;18.90;99.90
10678;DHT22;5387;48.722;9.110;2023-08-17T02:01:11;18.90;99.90
10678;DHT22;5387;48.722;9.110;2023-08-17T02:03:37;18.90;99.90
10678;DHT22;5387;48.722;9.110;2023-08-17T02:06:04;18.90;99.90
10678;DHT22;5387;48.722;9.110;2023-08-17T02:08:33;19.00;99.90
10678;DHT22;5387;48.722;9.110;2023-08-17T02:11:00;19.00;99.90
10678;DHT22;5387;48.722;9.110;2023-08-17T02:13:28;19.10;99.90
10678;DHT22;5387;48.722;9.110;2023-08-17T02:15:55;19.10;99.90
10678;DHT22;5387;48.722;9.110;2023-08-17T02:18:22;19.10;99.90
10678;DHT22;5387;48.722;9.110;2023-08-17T02:20:49;19.30;99.90
10678;DHT22;5387;48.722;9.110;2023-08-17T02:23:15;19.10;99.90
10678;DHT22;5387;48.722;9.110;2023-08-17T02:25:42;19.20;99.90
10678;DHT22;5387;48.722;9.110;2023-08-17T02:28:09;19.20;99.90
10678;DHT22;5387;48.722;9.110;2023-08-17T02:30:37;19.20;99.90
10678;DHT22;5387;48.722;9.110;2023-08-17T02:33:04;19.10;99.90
10678;DHT22;5387;48.722;9.110;2023-08-17T02:35:31;19.10;99.90
10678;DHT22;5387;48.722;9.110;2023-08-17T02:37:58;19.20;99.90
10678;DHT22;5387;48.722;9.110;2023-08-17T02:40:25;19.20;99.90
10678;DHT22;5387;48.722;9.110;2023-08-17T02:42:51;19.20;99.90
10678;DHT22;5387;48.722;9.110;2023-08-17T02:45:18;19.20;99.90
10678;DHT22;5387;48.722;9.110;2023-08-17T02:47:47;19.30;99.90
10678;DHT22;5387;48.722;9.110;2023-08-17T02:50:13;19.30;99.90
10678;DHT22;5387;48.722;9.110;2023-08-17T02:52:40;19.30;99.90
10678;DHT22;5387;48.722;9.110;2023-08-17T02:55:08;19.30;99.90
10678;DHT22;5387;48.722;9.110;2023-08-17T02:57:34;19.30;99.90
10678;DHT22;5387;48.722;9.110;2023-08-17T03:00:01;19.20;99.90
10678;DHT22;5387;48.722;9.110;2023-08-17T03:02:29;19.10;99.90
10678;DHT22;5387;48.722;9.110;2023-08-17T03:04:57;19.10;99.90
10678;DHT22;5387;48.722;9.110;2023-08-17T03:07:24;19.20;99.90
10678;DHT22;5387;48.722;9.110;2023-08-17T03:09:51;19.00;99.90
10678;DHT22;5387;48.722;9.110;2023-08-17T03:12:17;19.20;99.90
10678;DHT22;5387;48.722;9.110;2023-08-17T03:14:44;19.20;99.90
10678;DHT22;5387;48.722;9.110;2023-08-17T03:17:11;19.20;99.90
10678;DHT22;5387;48.722;9.110;2023-08-17T03:19:38;19.20;99.90
10678;DHT22;5387;48.722;9.110;2023-08-17T03:22:06;19.20;99.90
10678;DHT22;5387;48.722;9.110;2023-08-17T03:24:32;19.20;99.90
10678;DHT22;5387;48.722;9.110;2023-08-17T03:26:59;19.30;99.90
10678;DHT22;5387;48.722;9.110;2023-08-17T03:29:26;19.40;99.90
10678;DHT22;5387;48.722;9.110;2023-08-17T03:31:53;19.30;99.90
10678;DHT22;5387;48.722;9.110;2023-08-17T03:34:19;19.50;99.90
10678;DHT22;5387;48.722;9.110;2023-08-17T03:36:46;19.50;99.90
10678;DHT22;5387;48.722;9.110;2023-08-17T03:39:14;19.50;99.90
10678;DHT22;5387;48.722;9.110;2023-08-17T03:41:41;19.50;99.90
10678;DHT22;5387;48.722;9.110;2023-08-17T03:44:08;19.40;99.90
10678;DHT22;5387;48.722;9.110;2023-08-17T03:46:35;19.40;99.90
10678;DHT22;5387;48.722;9.110;2023-08-17T03:49:02;19.30;99.90
10678;DHT22;5387;48.722;9.110;2023-08-17T03:51:29;19.40;99.90
10678;DHT22;5387;48.722;9.110;2023-08-17T03:53:56;19.30;99.90
10678;DHT22;5387;48.722;9.110;2023-08-17T03:56:24;19.30;99.90
10678;DHT22;5387;48.722;9.110;2023-08-17T03:58:52;19.20;99.90
10678;DHT22;5387;48.722;9.110;2023-08-17T04:01:19;19.00;99.90
10678;DHT22;5387;48.722;9.110;2023-08-17T04:03:46;19.00;99.90
10678;DHT22;5387;48.722;9.110;2023-08-17T04:06:13;19.00;99.90
10678;DHT22;5387;48.722;9.110;2023-08-17T04:08:39;19.00;99.90
10678;DHT22;5387;48.722;9.110;2023-08-17T04:11:06;19.00;99.90
10678;DHT22;5387;48.722;9.110;2023-08-17T04:13:34;19.00;99.90
10678;DHT22;5387;48.722;9.110;2023-08-17T04:16:01;19.00;99.90
10678;DHT22;5387;48.722;9.110;2023-08-17T04:18:28;19.00;99.90
10678;DHT22;5387;48.722;9.110;2023-08-17T04:20:55;18.90;99.90
10678;DHT22;5387;48.722;9.110;2023-08-17T04:23:21;19.00;99.90
10678;DHT22;5387;48.722;9.110;2023-08-17T04:25:48;19.00;99.90
10678;DHT22;5387;48.722;9.110;2023-08-17T04:28:15;19.20;99.90
10678;DHT22;5387;48.722;9.110;2023-08-17T04:30:43;19.20;99.90
10678;DHT22;5387;48.722;9.110;2023-08-17T04:33:10;19.20;99.90
10678;DHT22;5387;48.722;9.110;2023-08-17T04:35:38;19.00;99.90
10678;DHT22;5387;48.722;9.110;2023-08-17T04:38:05;18.80;99.90
10678;DHT22;5387;48.722;9.110;2023-08-17T04:40:32;19.00;99.90
10678;DHT22;5387;48.722;9.110;2023-08-17T04:42:59;18.90;99.90
10678;DHT22;5387;48.722;9.110;2023-08-17T04:45:26;18.90;99.90
10678;DHT22;5387;48.722;9.110;2023-08-17T04:47:54;19.00;99.90
10678;DHT22;5387;48.722;9.110;2023-08-17T04:50:21;19.00;99.90
10678;DHT22;5387;48.722;9.110;2023-08-17T04:52:48;19.10;99.90
10678;DHT22;5387;48.722;9.110;2023-08-17T04:55:15;18.90;99.90
10678;DHT22;5387;48.722;9.110;2023-08-17T04:57:41;19.10;99.90
10678;DHT22;5387;48.722;9.110;2023-08-17T05:00:09;19.10;99.90
10678;DHT22;5387;48.722;9.110;2023-08-17T05:02:36;19.10;99.90
10678;DHT22;5387;48.722;9.110;2023-08-17T05:05:06;19.10;99.90
10678;DHT22;5387;48.722;9.110;2023-08-17T05:07:34;19.20;99.90
10678;DHT22;5387;48.722;9.110;2023-08-17T05:10:01;19.20;99.90
10678;DHT22;5387;48.722;9.110;2023-08-17T05:12:28;19.20;99.90
10678;DHT22;5387;48.722;9.110;2023-08-17T05:14:55;19.20;99.90
10678;DHT22;5387;48.722;9.110;2023-08-17T05:17:22;19.10;99.90
10678;DHT22;5387;48.722;9.110;2023-08-17T05:19:48;19.20;99.90
10678;DHT22;5387;48.722;9.110;2023-08-17T05:22:17;19.30;99.90
10678;DHT22;5387;48.722;9.110;2023-08-17T05:24:44;19.30;99.90
10678;DHT22;5387;48.722;9.110;2023-08-17T05:27:10;19.30;99.90
10678;DHT22;5387;48.722;9.110;2023-08-17T05:29:37;19.20;99.90
10678;DHT22;5387;48.722;9.110;2023-08-17T05:32:05;19.30;99.90
10678;DHT22;5387;48.722;9.110;2023-08-17T05:34:32;19.30;99.90
10678;DHT22;5387;48.722;9.110;2023-08-17T05:36:59;19.40;99.90
10678;DHT22;5387;48.722;9.110;2023-08-17T05:39:27;19.50;99.90
10678;DHT22;5387;48.722;9.110;2023-08-17T05:41:53;19.70;99.90
10678;DHT22;5387;48.722;9.110;2023-08-17T05:44:23;19.80;99.90
10678;DHT22;5387;48.722;9.110;2023-08-17T05:46:52;19.90;99.90
10678;DHT22;5387;48.722;9.110;2023-08-17T05:49:19;20.00;99.90
10678;DHT22;5387;48.722;9.110;2023-08-17T05:51:46;20.00;99.90
10678;DHT22;5387;48.722;9.110;2023-08-17T05:54:13;19.90;99.90
10678;DHT22;5387;48.722;9.110;2023-08-17T05:56:41;19.90;99.90
10678;DHT22;5387;48.722;9.110;2023-08-17T05:59:12;20.10;99.90
10678;DHT22;5387;48.722;9.110;2023-08-17T06:01:39;20.10;99.90
10678;DHT22;5387;48.722;9.110;2023-08-17T06:04:06;20.00;99.90
10678;DHT22;5387;48.722;9.110;2023-08-17T06:06:33;20.10;99.90
10678;DHT22;5387;48.722;9.110;2023-08-17T06:08:59;20.00;99.90
10678;DHT22;5387;48.722;9.110;2023-08-17T06:11:26;20.10;99.90
10678;DHT22;5387;48.722;9.110;2023-08-17T06:13:54;20.20;99.90
10678;DHT22;5387;48.722;9.110;2023-08-17T06:16:22;20.50;99.90
10678;DHT22;5387;48.722;9.110;2023-08-17T06:18:48;20.50;99.90
10678;DHT22;5387;48.722;9.110;2023-08-17T06:21:15;20.20;99.90
10678;DHT22;5387;48.722;9.110;2023-08-17T06:23:42;20.20;99.90
10678;DHT22;5387;48.722;9.110;2023-08-17T06:26:09;20.30;99.90
10678;DHT22;5387;48.722;9.110;2023-08-17T06:28:35;20.30;99.90
10678;DHT22;5387;48.722;9.110;2023-08-17T06:31:04;20.30;99.90
10678;DHT22;5387;48.722;9.110;2023-08-17T06:33:30;20.20;99.90
10678;DHT22;5387;48.722;9.110;2023-08-17T06:35:57;20.20;99.90
10678;DHT22;5387;48.722;9.110;2023-08-17T06:38:24;20.40;99.90
10678;DHT22;5387;48.722;9.110;2023-08-17T06:40:51;20.50;99.90
10678;DHT22;5387;48.722;9.110;2023-08-17T06:43:18;20.50;99.90
10678;DHT22;5387;48.722;9.110;2023-08-17T06:45:45;20.50;99.90
10678;DHT22;5387;48.722;9.110;2023-08-17T06:48:13;20.40;99.90
10678;DHT22;5387;48.722;9.110;2023-08-17T06:50:40;20.60;99.90
10678;DHT22;5387;48.722;9.110;2023-08-17T06:53:07;20.70;99.90
10678;DHT22;5387;48.722;9.110;2023-08-17T06:55:33;20.70;99.90
10678;DHT22;5387;48.722;9.110;2023-08-17T06:58:00;20.80;99.90
10678;DHT22;5387;48.722;9.110;2023-08-17T07:00:27;20.70;99.90
10678;DHT22;5387;48.722;9.110;2023-08-17T07:02:54;20.90;99.90
10678;DHT22;5387;48.722;9.110;2023-08-17T07:05:22;21.10;99.90
10678;DHT22;5387;48.722;9.110;2023-08-17T07:07:49;21.30;99.90
10678;DHT22;5387;48.722;9.110;2023-08-17T07:10:16;21.30;99.90
10678;DHT22;5387;48.722;9.110;2023-08-17T07:12:43;21.40;99.90
10678;DHT22;5387;48.722;9.110;2023-08-17T07:15:10;21.30;99.90
10678;DHT22;5387;48.722;9.110;2023-08-17T07:17:38;21.30;99.90
10678;DHT22;5387;48.722;9.110;2023-08-17T07:20:05;21.40;99.90
10678;DHT22;5387;48.722;9.110;2023-08-17T07:22:34;21.30;99.90
10678;DHT22;5387;48.722;9.110;2023-08-17T07:25:01;21.30;99.90
10678;DHT22;5387;48.722;9.110;2023-08-17T07:27:29;21.30;99.90
10678;DHT22;5387;48.722;9.110;2023-08-17T07:29:56;21.40;99.90
10678;DHT22;5387;48.722;9.110;2023-08-17T07:32:22;21.40;99.90
10678;DHT22;5387;48.722;9.110;2023-08-17T07:34:50;21.40;99.90
10678;DHT22;5387;48.722;9.110;2023-08-17T07:37:17;21.40;99.90
10678;DHT22;5387;48.722;9.110;2023-08-17T07:39:45;21.50;99.90
10678;DHT22;5387;48.722;9.110;2023-08-17T07:42:12;21.50;99.90
10678;DHT22;5387;48.722;9.110;2023-08-17T07:44:38;21.40;99.90
10678;DHT22;5387;48.722;9.110;2023-08-17T07:47:05;21.60;99.90
10678;DHT22;5387;48.722;9.110;2023-08-17T07:49:32;21.80;99.90
10678;DHT22;5387;48.722;9.110;2023-08-17T07:51:59;22.00;99.90
10678;DHT22;5387;48.722;9.110;2023-08-17T07:54:26;21.90;99.90
10678;DHT22;5387;48.722;9.110;2023-08-17T07:56:54;21.80;99.90
10678;DHT22;5387;48.722;9.110;2023-08-17T07:59:21;21.60;99.90
10678;DHT22;5387;48.722;9.110;2023-08-17T08:01:48;21.30;99.90
10678;DHT22;5387;48.722;9.110;2023-08-17T08:04:14;21.10;99.90
10678;DHT22;5387;48.722;9.110;2023-08-17T08:06:42;20.90;99.90
10678;DHT22;5387;48.722;9.110;2023-08-17T08:09:08;21.00;99.90
10678;DHT22;5387;48.722;9.110;2023-08-17T08:11:35;21.00;99.90
10678;DHT22;5387;48.722;9.110;2023-08-17T08:14:03;21.20;99.90
10678;DHT22;5387;48.722;9.110;2023-08-17T08:16:30;21.30;99.90
10678;DHT22;5387;48.722;9.110;2023-08-17T08:18:58;21.40;99.90
10678;DHT22;5387;48.722;9.110;2023-08-17T08:21:24;21.30;99.90
10678;DHT22;5387;48.722;9.110;2023-08-17T08:23:52;21.50;99.90
10678;DHT22;5387;48.722;9.110;2023-08-17T08:26:19;21.60;99.90
10678;DHT22;5387;48.722;9.110;2023-08-17T08:28:46;21.70;99.90
10678;DHT22;5387;48.722;9.110;2023-08-17T08:31:14;21.90;99.90
10678;DHT22;5387;48.722;9.110;2023-08-17T08:33:41;22.10;99.90
10678;DHT22;5387;48.722;9.110;2023-08-17T08:36:07;22.20;99.90
10678;DHT22;5387;48.722;9.110;2023-08-17T08:38:34;22.20;99.90
10678;DHT22;5387;48.722;9.110;2023-08-17T08:41:02;22.10;99.90
10678;DHT22;5387;48.722;9.110;2023-08-17T08:43:29;22.30;99.90
10678;DHT22;5387;48.722;9.110;2023-08-17T08:45:57;22.50;99.90
10678;DHT22;5387;48.722;9.110;2023-08-17T08:48:26;22.50;99.90
10678;DHT22;5387;48.722;9.110;2023-08-17T08:50:55;22.70;99.90
10678;DHT22;5387;48.722;9.110;2023-08-17T08:53:29;22.90;99.90
10678;DHT22;5387;48.722;9.110;2023-08-17T08:55:58;23.10;99.90
10678;DHT22;5387;48.722;9.110;2023-08-17T08:58:26;23.20;99.90
10678;DHT22;5387;48.722;9.110;2023-08-17T09:00:53;23.30;99.90
10678;DHT22;5387;48.722;9.110;2023-08-17T09:03:20;23.30;99.90
10678;DHT22;5387;48.722;9.110;2023-08-17T09:05:49;23.40;99.90
10678;DHT22;5387;48.722;9.110;2023-08-17T09:08:22;23.30;99.90
10678;DHT22;5387;48.722;9.110;2023-08-17T09:10:49;23.40;99.90
10678;DHT22;5387;48.722;9.110;2023-08-17T09:13:16;23.50;99.90
10678;DHT22;5387;48.722;9.110;2023-08-17T09:15:43;23.40;99.90
10678;DHT22;5387;48.722;9.110;2023-08-17T09:18:10;23.60;99.90
10678;DHT22;5387;48.722;9.110;2023-08-17T09:20:41;23.80;99.90
10678;DHT22;5387;48.722;9.110;2023-08-17T09:23:13;24.00;99.90
10678;DHT22;5387;48.722;9.110;2023-08-17T09:25:41;23.90;99.90
10678;DHT22;5387;48.722;9.110;2023-08-17T09:28:09;24.30;99.90
10678;DHT22;5387;48.722;9.110;2023-08-17T09:30:52;24.40;99.90
10678;DHT22;5387;48.722;9.110;2023-08-17T09:33:20;24.50;99.90
10678;DHT22;5387;48.722;9.110;2023-08-17T09:35:48;24.30;99.90
10678;DHT22;5387;48.722;9.110;2023-08-17T09:38:16;24.40;99.90
10678;DHT22;5387;48.722;9.110;2023-08-17T09:40:43;24.80;99.90
10678;DHT22;5387;48.722;9.110;2023-08-17T09:43:10;25.00;99.90
10678;DHT22;5387;48.722;9.110;2023-08-17T09:45:37;25.20;99.90
10678;DHT22;5387;48.722;9.110;2023-08-17T09:48:05;25.40;99.90
10678;DHT22;5387;48.722;9.110;2023-08-17T09:50:32;25.80;99.90
10678;DHT22;5387;48.722;9.110;2023-08-17T09:52:59;25.70;99.90
10678;DHT22;5387;48.722;9.110;2023-08-17T09:55:29;26.00;99.90
10678;DHT22;5387;48.722;9.110;2023-08-17T09:57:57;26.20;99.90
10678;DHT22;5387;48.722;9.110;2023-08-17T10:00:25;26.20;99.90
10678;DHT22;5387;48.722;9.110;2023-08-17T10:02:53;26.20;99.90
10678;DHT22;5387;48.722;9.110;2023-08-17T10:05:22;26.30;99.90
10678;DHT22;5387;48.722;9.110;2023-08-17T10:07:54;26.50;99.90
10678;DHT22;5387;48.722;9.110;2023-08-17T10:10:24;26.80;99.90
10678;DHT22;5387;48.722;9.110;2023-08-17T10:12:59;26.90;99.90
10678;DHT22;5387;48.722;9.110;2023-08-17T10:15:30;27.00;99.90
10678;DHT22;5387;48.722;9.110;2023-08-17T10:18:02;27.10;99.90
10678;DHT22;5387;48.722;9.110;2023-08-17T10:20:34;27.00;99.90
10678;DHT22;5387;48.722;9.110;2023-08-17T10:23:10;26.80;99.90
10678;DHT22;5387;48.722;9.110;2023-08-17T10:25:39;26.90;99.90
10678;DHT22;5387;48.722;9.110;2023-08-17T10:28:09;27.00;99.90
10678;DHT22;5387;48.722;9.110;2023-08-17T10:30:37;27.00;99.90
10678;DHT22;5387;48.722;9.110;2023-08-17T10:33:05;27.00;99.90
10678;DHT22;5387;48.722;9.110;2023-08-17T10:35:32;27.00;99.90
10678;DHT22;5387;48.722;9.110;2023-08-17T10:38:00;27.20;99.90
10678;DHT22;5387;48.722;9.110;2023-08-17T10:40:33;27.30;99.90
10678;DHT22;5387;48.722;9.110;2023-08-17T10:43:01;27.50;99.90
10678;DHT22;5387;48.722;9.110;2023-08-17T10:45:31;27.40;99.90
10678;DHT22;5387;48.722;9.110;2023-08-17T10:48:27;27.40;99.90
10678;DHT22;5387;48.722;9.110;2023-08-17T10:51:03;27.10;99.90
10678;DHT22;5387;48.722;9.110;2023-08-17T10:53:37;27.20;99.90
10678;DHT22;5387;48.722;9.110;2023-08-17T10:56:10;26.80;99.90
10678;DHT22;5387;48.722;9.110;2023-08-17T10:58:37;26.40;99.90
10678;DHT22;5387;48.722;9.110;2023-08-17T11:01:05;26.40;99.90
10678;DHT22;5387;48.722;9.110;2023-08-17T11:03:32;26.60;99.90
10678;DHT22;5387;48.722;9.110;2023-08-17T11:06:14;26.90;99.90
10678;DHT22;5387;48.722;9.110;2023-08-17T11:08:52;27.20;99.90
10678;DHT22;5387;48.722;9.110;2023-08-17T11:11:20;27.50;99.90
10678;DHT22;5387;48.722;9.110;2023-08-17T11:13:48;28.00;99.90
10678;DHT22;5387;48.722;9.110;2023-08-17T11:16:17;28.30;99.90
10678;DHT22;5387;48.722;9.110;2023-08-17T11:18:45;28.50;99.90
10678;DHT22;5387;48.722;9.110;2023-08-17T11:21:12;28.80;99.90
10678;DHT22;5387;48.722;9.110;2023-08-17T11:23:40;29.30;99.90
10678;DHT22;5387;48.722;9.110;2023-08-17T11:26:07;29.20;99.90
10678;DHT22;5387;48.722;9.110;2023-08-17T11:28:35;29.20;99.90
10678;DHT22;5387;48.722;9.110;2023-08-17T11:31:04;29.40;99.90
10678;DHT22;5387;48.722;9.110;2023-08-17T11:33:34;29.70;99.90
10678;DHT22;5387;48.722;9.110;2023-08-17T11:36:02;30.00;99.90
10678;DHT22;5387;48.722;9.110;2023-08-17T11:38:30;30.30;99.90
10678;DHT22;5387;48.722;9.110;2023-08-17T11:40:58;30.80;99.90
10678;DHT22;5387;48.722;9.110;2023-08-17T11:43:25;30.80;99.90
10678;DHT22;5387;48.722;9.110;2023-08-17T11:45:52;30.40;99.90
10678;DHT22;5387;48.722;9.110;2023-08-17T11:48:19;30.40;99.90
10678;DHT22;5387;48.722;9.110;2023-08-17T11:50:48;30.20;99.90
10678;DHT22;5387;48.722;9.110;2023-08-17T11:53:15;30.20;99.90
10678;DHT22;5387;48.722;9.110;2023-08-17T11:55:41;30.20;99.90
10678;DHT22;5387;48.722;9.110;2023-08-17T11:58:08;29.60;99.90
10678;DHT22;5387;48.722;9.110;2023-08-17T12:00:36;29.20;99.90
10678;DHT22;5387;48.722;9.110;2023-08-17T12:03:03;29.10;99.90
10678;DHT22;5387;48.722;9.110;2023-08-17T12:05:31;29.10;99.90
10678;DHT22;5387;48.722;9.110;2023-08-17T12:08:00;29.10;99.90
10678;DHT22;5387;48.722;9.110;2023-08-17T12:10:28;29.10;99.90
10678;DHT22;5387;48.722;9.110;2023-08-17T12:12:57;29.20;99.90
10678;DHT22;5387;48.722;9.110;2023-08-17T12:15:30;28.80;99.90
10678;DHT22;5387;48.722;9.110;2023-08-17T12:17:59;28.70;99.90
10678;DHT22;5387;48.722;9.110;2023-08-17T12:20:26;28.70;99.90
10678;DHT22;5387;48.722;9.110;2023-08-17T12:22:53;28.70;99.90
10678;DHT22;5387;48.722;9.110;2023-08-17T12:25:22;28.40;99.90
10678;DHT22;5387;48.722;9.110;2023-08-17T12:27:49;28.10;99.90
10678;DHT22;5387;48.722;9.110;2023-08-17T12:30:25;27.90;99.90
10678;DHT22;5387;48.722;9.110;2023-08-17T12:32:52;27.70;99.90
10678;DHT22;5387;48.722;9.110;2023-08-17T12:35:19;27.40;99.90
10678;DHT22;5387;48.722;9.110;2023-08-17T12:37:47;27.20;99.90
10678;DHT22;5387;48.722;9.110;2023-08-17T12:40:14;27.20;99.90
10678;DHT22;5387;48.722;9.110;2023-08-17T12:42:42;27.00;99.90
10678;DHT22;5387;48.722;9.110;2023-08-17T12:45:09;26.80;99.90
10678;DHT22;5387;48.722;9.110;2023-08-17T12:47:36;26.50;99.90
10678;DHT22;5387;48.722;9.110;2023-08-17T12:50:03;26.30;99.90
10678;DHT22;5387;48.722;9.110;2023-08-17T12:52:30;26.30;99.90
10678;DHT22;5387;48.722;9.110;2023-08-17T12:54:57;26.40;99.90
10678;DHT22;5387;48.722;9.110;2023-08-17T12:57:24;26.40;99.90
10678;DHT22;5387;48.722;9.110;2023-08-17T12:59:53;26.40;99.90
10678;DHT22;5387;48.722;9.110;2023-08-17T13:02:20;26.30;99.90
10678;DHT22;5387;48.722;9.110;2023-08-17T13:04:47;26.10;99.90
10678;DHT22;5387;48.722;9.110;2023-08-17T13:07:14;26.10;99.90
10678;DHT22;5387;48.722;9.110;2023-08-17T13:09:41;26.00;99.90
10678;DHT22;5387;48.722;9.110;2023-08-17T13:12:08;25.80;99.90
10678;DHT22;5387;48.722;9.110;2023-08-17T13:14:34;25.50;99.90
10678;DHT22;5387;48.722;9.110;2023-08-17T13:17:03;25.10;99.90
10678;DHT22;5387;48.722;9.110;2023-08-17T13:19:30;24.80;99.90
10678;DHT22;5387;48.722;9.110;2023-08-17T13:21:57;24.30;99.90
10678;DHT22;5387;48.722;9.110;2023-08-17T13:24:24;24.00;99.90
10678;DHT22;5387;48.722;9.110;2023-08-17T13:26:50;23.80;99.90
10678;DHT22;5387;48.722;9.110;2023-08-17T13:29:19;23.70;99.90
10678;DHT22;5387;48.722;9.110;2023-08-17T13:31:46;23.60;99.90
10678;DHT22;5387;48.722;9.110;2023-08-17T13:34:15;23.40;99.90
10678;DHT22;5387;48.722;9.110;2023-08-17T13:36:42;23.40;99.90
10678;DHT22;5387;48.722;9.110;2023-08-17T13:39:09;23.30;99.90
10678;DHT22;5387;48.722;9.110;2023-08-17T13:41:36;23.30;99.90
10678;DHT22;5387;48.722;9.110;2023-08-17T13:44:03;23.30;99.90
10678;DHT22;5387;48.722;9.110;2023-08-17T13:46:30;23.30;99.90
10678;DHT22;5387;48.722;9.110;2023-08-17T13:48:56;23.20;99.90
10678;DHT22;5387;48.722;9.110;2023-08-17T13:51:25;23.30;99.90
10678;DHT22;5387;48.722;9.110;2023-08-17T13:53:52;23.30;99.90
10678;DHT22;5387;48.722;9.110;2023-08-17T13:56:19;23.20;99.90
10678;DHT22;5387;48.722;9.110;2023-08-17T13:58:46;23.10;99.90
10678;DHT22;5387;48.722;9.110;2023-08-17T14:01:13;23.20;99.90
10678;DHT22;5387;48.722;9.110;2023-08-17T14:03:40;23.20;99.90
10678;DHT22;5387;48.722;9.110;2023-08-17T14:06:08;23.20;99.90
10678;DHT22;5387;48.722;9.110;2023-08-17T14:08:36;23.30;99.90
10678;DHT22;5387;48.722;9.110;2023-08-17T14:11:02;23.20;99.90
10678;DHT22;5387;48.722;9.110;2023-08-17T14:13:30;23.20;99.90
10678;DHT22;5387;48.722;9.110;2023-08-17T14:15:57;23.30;99.90
10678;DHT22;5387;48.722;9.110;2023-08-17T14:18:25;23.10;99.90
10678;DHT22;5387;48.722;9.110;2023-08-17T14:20:51;22.90;99.90
10678;DHT22;5387;48.722;9.110;2023-08-17T14:23:18;22.80;99.90
10678;DHT22;5387;48.722;9.110;2023-08-17T14:25:46;22.90;99.90
10678;DHT22;5387;48.722;9.110;2023-08-17T14:28:13;23.00;99.90
10678;DHT22;5387;48.722;9.110;2023-08-17T14:30:40;23.10;99.90
10678;DHT22;5387;48.722;9.110;2023-08-17T14:33:08;23.20;99.90
10678;DHT22;5387;48.722;9.110;2023-08-17T14:35:35;23.10;99.90
10678;DHT22;5387;48.722;9.110;2023-08-17T14:38:01;23.20;99.90
10678;DHT22;5387;48.722;9.110;2023-08-17T14:40:28;23.40;99.90
10678;DHT22;5387;48.722;9.110;2023-08-17T14:42:56;23.40;99.90
10678;DHT22;5387;48.722;9.110;2023-08-17T14:45:23;23.60;99.90
10678;DHT22;5387;48.722;9.110;2023-08-17T14:47:50;23.50;99.90
10678;DHT22;5387;48.722;9.110;2023-08-17T14:50:17;23.50;99.90
10678;DHT22;5387;48.722;9.110;2023-08-17T14:52:44;23.60;99.90
10678;DHT22;5387;48.722;9.110;2023-08-17T14:55:12;23.90;99.90
10678;DHT22;5387;48.722;9.110;2023-08-17T14:57:38;24.10;99.90
10678;DHT22;5387;48.722;9.110;2023-08-17T15:00:08;24.20;99.90
10678;DHT22;5387;48.722;9.110;2023-08-17T15:02:35;24.10;99.90
10678;DHT22;5387;48.722;9.110;2023-08-17T15:05:02;24.10;99.90
10678;DHT22;5387;48.722;9.110;2023-08-17T15:07:28;24.20;99.90
10678;DHT22;5387;48.722;9.110;2023-08-17T15:09:56;24.20;99.90
10678;DHT22;5387;48.722;9.110;2023-08-17T15:12:23;24.10;99.90
10678;DHT22;5387;48.722;9.110;2023-08-17T15:14:49;24.20;99.90
10678;DHT22;5387;48.722;9.110;2023-08-17T15:17:17;24.10;99.90
10678;DHT22;5387;48.722;9.110;2023-08-17T15:19:44;24.10;99.90
10678;DHT22;5387;48.722;9.110;2023-08-17T15:22:11;24.20;99.90
10678;DHT22;5387;48.722;9.110;2023-08-17T15:24:38;24.30;99.90
10678;DHT22;5387;48.722;9.110;2023-08-17T15:27:05;24.50;99.90
10678;DHT22;5387;48.722;9.110;2023-08-17T15:29:33;24.60;99.90
10678;DHT22;5387;48.722;9.110;2023-08-17T15:32:05;25.00;99.90
10678;DHT22;5387;48.722;9.110;2023-08-17T15:34:34;25.20;99.90
10678;DHT22;5387;48.722;9.110;2023-08-17T15:37:01;25.30;99.90
10678;DHT22;5387;48.722;9.110;2023-08-17T15:39:28;25.60;99.90
10678;DHT22;5387;48.722;9.110;2023-08-17T15:41:56;25.90;99.90
10678;DHT22;5387;48.722;9.110;2023-08-17T15:44:23;26.00;99.90
10678;DHT22;5387;48.722;9.110;2023-08-17T15:46:50;26.00;99.90
10678;DHT22;5387;48.722;9.110;2023-08-17T15:49:20;25.90;99.90